sensor_id;sensor_type;location;lat;lon;timestamp;P1;durP1;ratioP1;P2;durP2;ratioP2
13014;SDS011;6573;57.696;11.950;2023-07-13T00:01:15;11.17;;;2.33;;
13014;SDS011;6573;57.696;11.950;2023-07-13T00:03:44;9.70;;;2.27;;
13014;SDS011;6573;57.696;11.950;2023-07-13T00:06:13;9.67;;;2.07;;
13014;SDS011;6573;57.696;11.950;2023-07-13T00:08:42;9.77;;;1.80;;
13014;SDS011;6573;57.696;11.950;2023-07-13T00:11:10;8.13;;;1.83;;
13014;SDS011;6573;57.696;11.950;2023-07-13T00:13:39;12.47;;;1.97;;
13014;SDS011;6573;57.696;11.950;2023-07-13T00:16:09;8.20;;;2.17;;
13014;SDS011;6573;57.696;11.950;2023-07-13T00:18:40;4.77;;;1.60;;
13014;SDS011;6573;57.696;11.950;2023-07-13T00:21:09;9.27;;;2.27;;
13014;SDS011;6573;57.696;11.950;2023-07-13T00:23:38;6.67;;;1.80;;
13014;SDS011;6573;57.696;11.950;2023-07-13T00:26:09;8.13;;;2.10;;
13014;SDS011;6573;57.696;11.950;2023-07-13T00:28:39;7.73;;;1.70;;
13014;SDS011;6573;57.696;11.950;2023-07-13T00:31:08;8.57;;;2.33;;
13014;SDS011;6573;57.696;11.950;2023-07-13T00:33:38;6.20;;;2.23;;
13014;SDS011;6573;57.696;11.950;2023-07-13T00:36:09;11.63;;;1.90;;
13014;SDS011;6573;57.696;11.950;2023-07-13T00:38:38;10.70;;;2.37;;
13014;SDS011;6573;57.696;11.950;2023-07-13T00:41:06;7.57;;;1.87;;
13014;SDS011;6573;57.696;11.950;2023-07-13T00:43:35;7.53;;;2.00;;
13014;SDS011;6573;57.696;11.950;2023-07-13T00:46:15;10.70;;;2.20;;
13014;SDS011;6573;57.696;11.950;2023-07-13T00:48:50;7.60;;;1.90;;
13014;SDS011;6573;57.696;11.950;2023-07-13T00:51:21;8.97;;;2.33;;
13014;SDS011;6573;57.696;11.950;2023-07-13T00:53:56;9.27;;;2.40;;
13014;SDS011;6573;57.696;11.950;2023-07-13T00:56:27;11.63;;;1.77;;
13014;SDS011;6573;57.696;11.950;2023-07-13T00:58:56;12.10;;;2.00;;
13014;SDS011;6573;57.696;11.950;2023-07-13T01:01:25;8.77;;;2.43;;
13014;SDS011;6573;57.696;11.950;2023-07-13T01:03:55;8.43;;;1.80;;
13014;SDS011;6573;57.696;11.950;2023-07-13T01:06:24;8.30;;;2.00;;
13014;SDS011;6573;57.696;11.950;2023-07-13T01:08:52;9.10;;;2.10;;
13014;SDS011;6573;57.696;11.950;2023-07-13T01:11:21;9.30;;;1.90;;
13014;SDS011;6573;57.696;11.950;2023-07-13T01:13:50;10.67;;;2.40;;
13014;SDS011;6573;57.696;11.950;2023-07-13T01:16:21;8.33;;;2.40;;
13014;SDS011;6573;57.696;11.950;2023-07-13T01:18:52;6.47;;;1.93;;
13014;SDS011;6573;57.696;11.950;2023-07-13T01:21:26;6.00;;;2.13;;
13014;SDS011;6573;57.696;11.950;2023-07-13T01:23:56;8.47;;;2.10;;
13014;SDS011;6573;57.696;11.950;2023-07-13T01:26:26;6.60;;;2.00;;
13014;SDS011;6573;57.696;11.950;2023-07-13T01:28:54;10.60;;;2.27;;
13014;SDS011;6573;57.696;11.950;2023-07-13T01:31:24;8.10;;;2.20;;
13014;SDS011;6573;57.696;11.950;2023-07-13T01:33:53;9.83;;;2.50;;
13014;SDS011;6573;57.696;11.950;2023-07-13T01:36:21;11.20;;;2.80;;
13014;SDS011;6573;57.696;11.950;2023-07-13T01:38:51;11.10;;;2.70;;
13014;SDS011;6573;57.696;11.950;2023-07-13T01:41:20;12.03;;;3.27;;
13014;SDS011;6573;57.696;11.950;2023-07-13T01:43:48;7.93;;;2.20;;
13014;SDS011;6573;57.696;11.950;2023-07-13T01:46:16;12.60;;;2.63;;
13014;SDS011;6573;57.696;11.950;2023-07-13T01:48:49;12.97;;;2.70;;
13014;SDS011;6573;57.696;11.950;2023-07-13T01:51:19;9.27;;;2.27;;
13014;SDS011;6573;57.696;11.950;2023-07-13T01:53:48;8.77;;;2.27;;
13014;SDS011;6573;57.696;11.950;2023-07-13T01:56:18;7.53;;;2.10;;
13014;SDS011;6573;57.696;11.950;2023-07-13T01:58:47;12.30;;;2.87;;
13014;SDS011;6573;57.696;11.950;2023-07-13T02:01:15;9.10;;;2.70;;
13014;SDS011;6573;57.696;11.950;2023-07-13T02:03:44;15.43;;;2.50;;
13014;SDS011;6573;57.696;11.950;2023-07-13T02:06:13;11.60;;;2.47;;
13014;SDS011;6573;57.696;11.950;2023-07-13T02:08:41;8.53;;;2.70;;
13014;SDS011;6573;57.696;11.950;2023-07-13T02:11:10;9.63;;;2.13;;
13014;SDS011;6573;57.696;11.950;2023-07-13T02:13:40;11.57;;;2.17;;
13014;SDS011;6573;57.696;11.950;2023-07-13T02:16:09;7.43;;;2.63;;
13014;SDS011;6573;57.696;11.950;2023-07-13T02:18:38;10.73;;;2.70;;
13014;SDS011;6573;57.696;11.950;2023-07-13T02:21:07;8.37;;;2.30;;
13014;SDS011;6573;57.696;11.950;2023-07-13T02:23:38;11.07;;;2.60;;
13014;SDS011;6573;57.696;11.950;2023-07-13T02:26:07;10.73;;;2.50;;
13014;SDS011;6573;57.696;11.950;2023-07-13T02:28:35;6.47;;;2.50;;
13014;SDS011;6573;57.696;11.950;2023-07-13T02:31:06;7.73;;;2.47;;
13014;SDS011;6573;57.696;11.950;2023-07-13T02:33:35;12.83;;;3.10;;
13014;SDS011;6573;57.696;11.950;2023-07-13T02:36:04;8.93;;;2.80;;
13014;SDS011;6573;57.696;11.950;2023-07-13T02:38:33;13.30;;;2.97;;
13014;SDS011;6573;57.696;11.950;2023-07-13T02:41:02;8.70;;;2.57;;
13014;SDS011;6573;57.696;11.950;2023-07-13T02:43:31;8.60;;;2.33;;
13014;SDS011;6573;57.696;11.950;2023-07-13T02:46:00;10.00;;;2.53;;
13014;SDS011;6573;57.696;11.950;2023-07-13T02:48:36;9.37;;;2.70;;
13014;SDS011;6573;57.696;11.950;2023-07-13T02:51:06;9.13;;;2.03;;
13014;SDS011;6573;57.696;11.950;2023-07-13T02:53:35;12.87;;;2.30;;
13014;SDS011;6573;57.696;11.950;2023-07-13T02:56:03;6.53;;;2.40;;
13014;SDS011;6573;57.696;11.950;2023-07-13T02:58:32;8.07;;;2.70;;
13014;SDS011;6573;57.696;11.950;2023-07-13T03:01:06;9.67;;;2.47;;
13014;SDS011;6573;57.696;11.950;2023-07-13T03:03:37;8.60;;;2.27;;
13014;SDS011;6573;57.696;11.950;2023-07-13T03:06:08;9.40;;;2.50;;
13014;SDS011;6573;57.696;11.950;2023-07-13T03:08:36;13.37;;;2.57;;
13014;SDS011;6573;57.696;11.950;2023-07-13T03:11:06;13.30;;;2.50;;
13014;SDS011;6573;57.696;11.950;2023-07-13T03:13:38;9.87;;;2.80;;
13014;SDS011;6573;57.696;11.950;2023-07-13T03:16:07;8.60;;;2.80;;
13014;SDS011;6573;57.696;11.950;2023-07-13T03:18:39;15.70;;;3.13;;
13014;SDS011;6573;57.696;11.950;2023-07-13T03:21:07;13.73;;;2.70;;
13014;SDS011;6573;57.696;11.950;2023-07-13T03:23:36;8.40;;;2.80;;
13014;SDS011;6573;57.696;11.950;2023-07-13T03:26:05;9.83;;;2.67;;
13014;SDS011;6573;57.696;11.950;2023-07-13T03:28:36;10.80;;;2.57;;
13014;SDS011;6573;57.696;11.950;2023-07-13T03:31:06;13.67;;;2.97;;
13014;SDS011;6573;57.696;11.950;2023-07-13T03:33:39;14.70;;;2.90;;
13014;SDS011;6573;57.696;11.950;2023-07-13T03:36:10;11.93;;;2.83;;
13014;SDS011;6573;57.696;11.950;2023-07-13T03:38:40;12.70;;;3.20;;
13014;SDS011;6573;57.696;11.950;2023-07-13T03:41:09;9.50;;;2.80;;
13014;SDS011;6573;57.696;11.950;2023-07-13T03:43:37;13.83;;;3.20;;
13014;SDS011;6573;57.696;11.950;2023-07-13T03:46:05;8.90;;;2.73;;
13014;SDS011;6573;57.696;11.950;2023-07-13T03:48:35;10.87;;;3.20;;
13014;SDS011;6573;57.696;11.950;2023-07-13T03:51:05;13.47;;;3.47;;
13014;SDS011;6573;57.696;11.950;2023-07-13T03:53:33;7.83;;;2.67;;
13014;SDS011;6573;57.696;11.950;2023-07-13T03:56:02;8.40;;;2.50;;
13014;SDS011;6573;57.696;11.950;2023-07-13T03:58:34;12.43;;;3.00;;
13014;SDS011;6573;57.696;11.950;2023-07-13T04:01:04;8.97;;;2.60;;
13014;SDS011;6573;57.696;11.950;2023-07-13T04:03:34;13.80;;;2.77;;
13014;SDS011;6573;57.696;11.950;2023-07-13T04:06:03;11.20;;;3.00;;
13014;SDS011;6573;57.696;11.950;2023-07-13T04:08:36;9.73;;;2.40;;
13014;SDS011;6573;57.696;11.950;2023-07-13T04:11:05;10.50;;;2.53;;
13014;SDS011;6573;57.696;11.950;2023-07-13T04:13:33;9.43;;;2.20;;
13014;SDS011;6573;57.696;11.950;2023-07-13T04:16:02;10.60;;;2.43;;
13014;SDS011;6573;57.696;11.950;2023-07-13T04:18:30;13.20;;;2.37;;
13014;SDS011;6573;57.696;11.950;2023-07-13T04:20:59;10.10;;;2.87;;
13014;SDS011;6573;57.696;11.950;2023-07-13T04:23:29;8.33;;;2.47;;
13014;SDS011;6573;57.696;11.950;2023-07-13T04:25:57;8.63;;;2.30;;
13014;SDS011;6573;57.696;11.950;2023-07-13T04:28:26;11.97;;;2.40;;
13014;SDS011;6573;57.696;11.950;2023-07-13T04:30:54;9.83;;;2.20;;
13014;SDS011;6573;57.696;11.950;2023-07-13T04:33:23;11.63;;;2.23;;
13014;SDS011;6573;57.696;11.950;2023-07-13T04:35:52;13.53;;;2.63;;
13014;SDS011;6573;57.696;11.950;2023-07-13T04:38:23;10.27;;;3.00;;
13014;SDS011;6573;57.696;11.950;2023-07-13T04:40:56;10.67;;;2.33;;
13014;SDS011;6573;57.696;11.950;2023-07-13T04:43:26;10.53;;;2.40;;
13014;SDS011;6573;57.696;11.950;2023-07-13T04:45:55;8.13;;;2.30;;
13014;SDS011;6573;57.696;11.950;2023-07-13T04:48:27;9.63;;;2.63;;
13014;SDS011;6573;57.696;11.950;2023-07-13T04:50:56;10.03;;;2.30;;
13014;SDS011;6573;57.696;11.950;2023-07-13T04:53:25;7.53;;;2.47;;
13014;SDS011;6573;57.696;11.950;2023-07-13T04:55:56;7.90;;;2.43;;
13014;SDS011;6573;57.696;11.950;2023-07-13T04:58:24;7.27;;;2.10;;
13014;SDS011;6573;57.696;11.950;2023-07-13T05:00:53;6.33;;;2.17;;
13014;SDS011;6573;57.696;11.950;2023-07-13T05:03:28;6.40;;;1.80;;
13014;SDS011;6573;57.696;11.950;2023-07-13T05:06:00;14.97;;;2.50;;
13014;SDS011;6573;57.696;11.950;2023-07-13T05:08:30;11.93;;;2.20;;
13014;SDS011;6573;57.696;11.950;2023-07-13T05:11:01;12.30;;;2.37;;
13014;SDS011;6573;57.696;11.950;2023-07-13T05:13:35;9.13;;;1.87;;
13014;SDS011;6573;57.696;11.950;2023-07-13T05:16:04;10.23;;;2.10;;
13014;SDS011;6573;57.696;11.950;2023-07-13T05:18:34;11.70;;;2.10;;
13014;SDS011;6573;57.696;11.950;2023-07-13T05:21:08;9.63;;;2.80;;
13014;SDS011;6573;57.696;11.950;2023-07-13T05:23:39;12.07;;;2.50;;
13014;SDS011;6573;57.696;11.950;2023-07-13T05:26:10;12.27;;;2.20;;
13014;SDS011;6573;57.696;11.950;2023-07-13T05:28:38;7.90;;;2.20;;
13014;SDS011;6573;57.696;11.950;2023-07-13T05:31:09;5.87;;;1.90;;
13014;SDS011;6573;57.696;11.950;2023-07-13T05:33:38;11.33;;;2.83;;
13014;SDS011;6573;57.696;11.950;2023-07-13T05:36:07;7.53;;;1.97;;
13014;SDS011;6573;57.696;11.950;2023-07-13T05:38:35;9.37;;;2.30;;
13014;SDS011;6573;57.696;11.950;2023-07-13T05:41:03;9.90;;;2.50;;
13014;SDS011;6573;57.696;11.950;2023-07-13T05:43:34;6.87;;;1.90;;
13014;SDS011;6573;57.696;11.950;2023-07-13T05:46:02;9.03;;;2.50;;
13014;SDS011;6573;57.696;11.950;2023-07-13T05:48:30;7.37;;;2.20;;
13014;SDS011;6573;57.696;11.950;2023-07-13T05:50:59;9.77;;;1.93;;
13014;SDS011;6573;57.696;11.950;2023-07-13T05:53:30;6.60;;;1.97;;
13014;SDS011;6573;57.696;11.950;2023-07-13T05:55:59;9.10;;;2.60;;
13014;SDS011;6573;57.696;11.950;2023-07-13T05:58:28;10.03;;;2.90;;
13014;SDS011;6573;57.696;11.950;2023-07-13T06:01:02;10.30;;;2.03;;
13014;SDS011;6573;57.696;11.950;2023-07-13T06:03:35;11.13;;;2.43;;
13014;SDS011;6573;57.696;11.950;2023-07-13T06:06:04;8.30;;;2.10;;
13014;SDS011;6573;57.696;11.950;2023-07-13T06:08:36;9.00;;;2.03;;
13014;SDS011;6573;57.696;11.950;2023-07-13T06:11:05;9.67;;;2.00;;
13014;SDS011;6573;57.696;11.950;2023-07-13T06:13:35;11.33;;;2.27;;
13014;SDS011;6573;57.696;11.950;2023-07-13T06:16:05;10.53;;;2.27;;
13014;SDS011;6573;57.696;11.950;2023-07-13T06:18:36;11.30;;;2.23;;
13014;SDS011;6573;57.696;11.950;2023-07-13T06:21:06;7.80;;;2.33;;
13014;SDS011;6573;57.696;11.950;2023-07-13T06:23:36;8.17;;;2.00;;
13014;SDS011;6573;57.696;11.950;2023-07-13T06:26:05;9.17;;;2.20;;
13014;SDS011;6573;57.696;11.950;2023-07-13T06:28:34;6.57;;;2.20;;
13014;SDS011;6573;57.696;11.950;2023-07-13T06:31:08;7.60;;;2.10;;
13014;SDS011;6573;57.696;11.950;2023-07-13T06:33:38;8.70;;;2.43;;
13014;SDS011;6573;57.696;11.950;2023-07-13T06:36:07;7.27;;;2.57;;
13014;SDS011;6573;57.696;11.950;2023-07-13T06:38:36;10.10;;;2.50;;
13014;SDS011;6573;57.696;11.950;2023-07-13T06:41:06;8.80;;;2.33;;
13014;SDS011;6573;57.696;11.950;2023-07-13T06:43:36;12.00;;;2.67;;
13014;SDS011;6573;57.696;11.950;2023-07-13T06:46:05;10.43;;;2.50;;
13014;SDS011;6573;57.696;11.950;2023-07-13T06:48:36;7.83;;;2.40;;
13014;SDS011;6573;57.696;11.950;2023-07-13T06:51:04;7.00;;;1.63;;
13014;SDS011;6573;57.696;11.950;2023-07-13T06:53:35;12.03;;;2.33;;
13014;SDS011;6573;57.696;11.950;2023-07-13T06:56:04;12.13;;;2.60;;
13014;SDS011;6573;57.696;11.950;2023-07-13T06:58:34;6.63;;;2.30;;
13014;SDS011;6573;57.696;11.950;2023-07-13T07:01:03;9.57;;;2.20;;
13014;SDS011;6573;57.696;11.950;2023-07-13T07:03:35;10.13;;;2.33;;
13014;SDS011;6573;57.696;11.950;2023-07-13T07:06:08;11.60;;;2.00;;
13014;SDS011;6573;57.696;11.950;2023-07-13T07:08:42;6.77;;;1.90;;
13014;SDS011;6573;57.696;11.950;2023-07-13T07:11:12;8.23;;;2.17;;
13014;SDS011;6573;57.696;11.950;2023-07-13T07:13:41;5.40;;;1.97;;
13014;SDS011;6573;57.696;11.950;2023-07-13T07:16:09;5.73;;;2.20;;
13014;SDS011;6573;57.696;11.950;2023-07-13T07:18:39;12.00;;;2.30;;
13014;SDS011;6573;57.696;11.950;2023-07-13T07:21:08;4.33;;;1.63;;
13014;SDS011;6573;57.696;11.950;2023-07-13T07:23:36;4.67;;;1.73;;
13014;SDS011;6573;57.696;11.950;2023-07-13T07:26:05;9.53;;;2.00;;
13014;SDS011;6573;57.696;11.950;2023-07-13T07:28:36;4.77;;;1.80;;
13014;SDS011;6573;57.696;11.950;2023-07-13T07:31:08;9.10;;;1.60;;
13014;SDS011;6573;57.696;11.950;2023-07-13T07:33:41;5.87;;;1.80;;
13014;SDS011;6573;57.696;11.950;2023-07-13T07:36:10;4.67;;;1.80;;
13014;SDS011;6573;57.696;11.950;2023-07-13T07:38:42;7.67;;;2.03;;
13014;SDS011;6573;57.696;11.950;2023-07-13T07:41:12;5.10;;;1.70;;
13014;SDS011;6573;57.696;11.950;2023-07-13T07:43:43;9.70;;;1.83;;
13014;SDS011;6573;57.696;11.950;2023-07-13T07:46:12;3.77;;;1.70;;
13014;SDS011;6573;57.696;11.950;2023-07-13T07:48:42;5.20;;;1.37;;
13014;SDS011;6573;57.696;11.950;2023-07-13T07:51:11;7.67;;;1.80;;
13014;SDS011;6573;57.696;11.950;2023-07-13T07:53:39;3.47;;;1.30;;
13014;SDS011;6573;57.696;11.950;2023-07-13T07:56:08;2.90;;;1.50;;
13014;SDS011;6573;57.696;11.950;2023-07-13T07:58:40;3.47;;;1.77;;
13014;SDS011;6573;57.696;11.950;2023-07-13T08:01:12;4.40;;;1.77;;
13014;SDS011;6573;57.696;11.950;2023-07-13T08:03:45;4.73;;;1.40;;
13014;SDS011;6573;57.696;11.950;2023-07-13T08:06:16;4.13;;;1.10;;
13014;SDS011;6573;57.696;11.950;2023-07-13T08:08:49;4.93;;;1.30;;
13014;SDS011;6573;57.696;11.950;2023-07-13T08:11:17;3.83;;;1.60;;
13014;SDS011;6573;57.696;11.950;2023-07-13T08:13:49;7.17;;;1.27;;
13014;SDS011;6573;57.696;11.950;2023-07-13T08:16:21;4.27;;;1.40;;
13014;SDS011;6573;57.696;11.950;2023-07-13T08:18:54;8.90;;;1.63;;
13014;SDS011;6573;57.696;11.950;2023-07-13T08:21:22;5.87;;;1.67;;
13014;SDS011;6573;57.696;11.950;2023-07-13T08:23:50;4.57;;;1.63;;
13014;SDS011;6573;57.696;11.950;2023-07-13T08:26:20;4.57;;;1.37;;
13014;SDS011;6573;57.696;11.950;2023-07-13T08:28:49;8.37;;;1.53;;
13014;SDS011;6573;57.696;11.950;2023-07-13T08:31:18;12.20;;;1.77;;
13014;SDS011;6573;57.696;11.950;2023-07-13T08:33:46;2.40;;;1.10;;
13014;SDS011;6573;57.696;11.950;2023-07-13T08:36:16;9.20;;;1.60;;
13014;SDS011;6573;57.696;11.950;2023-07-13T08:38:44;6.17;;;2.33;;
13014;SDS011;6573;57.696;11.950;2023-07-13T08:41:13;5.40;;;1.53;;
13014;SDS011;6573;57.696;11.950;2023-07-13T08:43:54;4.93;;;1.50;;
13014;SDS011;6573;57.696;11.950;2023-07-13T08:46:28;4.27;;;1.43;;
13014;SDS011;6573;57.696;11.950;2023-07-13T08:49:08;3.60;;;1.20;;
13014;SDS011;6573;57.696;11.950;2023-07-13T08:51:41;4.80;;;1.30;;
13014;SDS011;6573;57.696;11.950;2023-07-13T08:54:19;7.00;;;1.40;;
13014;SDS011;6573;57.696;11.950;2023-07-13T08:56:51;5.70;;;1.37;;
13014;SDS011;6573;57.696;11.950;2023-07-13T08:59:22;5.40;;;1.27;;
13014;SDS011;6573;57.696;11.950;2023-07-13T09:02:00;4.13;;;1.40;;
13014;SDS011;6573;57.696;11.950;2023-07-13T09:04:42;4.67;;;1.40;;
13014;SDS011;6573;57.696;11.950;2023-07-13T09:07:19;5.33;;;2.00;;
13014;SDS011;6573;57.696;11.950;2023-07-13T09:10:00;4.77;;;1.30;;
13014;SDS011;6573;57.696;11.950;2023-07-13T09:12:40;4.43;;;1.30;;
13014;SDS011;6573;57.696;11.950;2023-07-13T09:15:24;5.87;;;1.70;;
13014;SDS011;6573;57.696;11.950;2023-07-13T09:17:59;4.33;;;1.40;;
13014;SDS011;6573;57.696;11.950;2023-07-13T09:20:33;2.57;;;1.50;;
13014;SDS011;6573;57.696;11.950;2023-07-13T09:23:07;6.30;;;1.60;;
13014;SDS011;6573;57.696;11.950;2023-07-13T09:25:39;3.97;;;1.57;;
13014;SDS011;6573;57.696;11.950;2023-07-13T09:28:15;5.83;;;1.43;;
13014;SDS011;6573;57.696;11.950;2023-07-13T09:30:50;5.87;;;1.63;;
13014;SDS011;6573;57.696;11.950;2023-07-13T09:33:22;2.73;;;1.27;;
13014;SDS011;6573;57.696;11.950;2023-07-13T09:35:52;5.70;;;1.40;;
13014;SDS011;6573;57.696;11.950;2023-07-13T09:38:21;4.60;;;1.50;;
13014;SDS011;6573;57.696;11.950;2023-07-13T09:41:04;4.70;;;1.80;;
13014;SDS011;6573;57.696;11.950;2023-07-13T09:46:38;3.97;;;1.40;;
13014;SDS011;6573;57.696;11.950;2023-07-13T09:49:12;3.70;;;1.53;;
13014;SDS011;6573;57.696;11.950;2023-07-13T09:51:41;3.50;;;1.30;;
13014;SDS011;6573;57.696;11.950;2023-07-13T09:54:21;7.80;;;1.60;;
13014;SDS011;6573;57.696;11.950;2023-07-13T09:56:55;6.27;;;1.57;;
13014;SDS011;6573;57.696;11.950;2023-07-13T09:59:27;8.10;;;1.50;;
13014;SDS011;6573;57.696;11.950;2023-07-13T10:01:58;9.93;;;1.90;;
13014;SDS011;6573;57.696;11.950;2023-07-13T10:04:27;5.03;;;1.90;;
13014;SDS011;6573;57.696;11.950;2023-07-13T10:07:05;4.77;;;1.40;;
13014;SDS011;6573;57.696;11.950;2023-07-13T10:09:54;7.60;;;1.67;;
13014;SDS011;6573;57.696;11.950;2023-07-13T10:12:24;8.13;;;1.70;;
13014;SDS011;6573;57.696;11.950;2023-07-13T10:14:57;4.63;;;1.30;;
13014;SDS011;6573;57.696;11.950;2023-07-13T10:17:51;7.03;;;1.40;;
13014;SDS011;6573;57.696;11.950;2023-07-13T10:20:22;3.80;;;1.50;;
13014;SDS011;6573;57.696;11.950;2023-07-13T10:22:51;7.63;;;1.53;;
13014;SDS011;6573;57.696;11.950;2023-07-13T10:25:25;6.00;;;1.90;;
13014;SDS011;6573;57.696;11.950;2023-07-13T10:27:58;6.80;;;1.50;;
13014;SDS011;6573;57.696;11.950;2023-07-13T10:30:32;4.70;;;1.63;;
13014;SDS011;6573;57.696;11.950;2023-07-13T10:33:09;7.37;;;1.80;;
13014;SDS011;6573;57.696;11.950;2023-07-13T10:35:40;6.27;;;1.60;;
13014;SDS011;6573;57.696;11.950;2023-07-13T10:38:13;5.17;;;1.90;;
13014;SDS011;6573;57.696;11.950;2023-07-13T10:40:50;6.07;;;1.73;;
13014;SDS011;6573;57.696;11.950;2023-07-13T10:43:27;3.67;;;1.40;;
13014;SDS011;6573;57.696;11.950;2023-07-13T10:46:00;3.37;;;1.40;;
13014;SDS011;6573;57.696;11.950;2023-07-13T10:48:31;4.93;;;1.73;;
13014;SDS011;6573;57.696;11.950;2023-07-13T10:51:04;5.67;;;1.60;;
13014;SDS011;6573;57.696;11.950;2023-07-13T10:53:35;3.70;;;1.57;;
13014;SDS011;6573;57.696;11.950;2023-07-13T10:56:15;6.03;;;1.70;;
13014;SDS011;6573;57.696;11.950;2023-07-13T10:59:01;3.73;;;1.50;;
13014;SDS011;6573;57.696;11.950;2023-07-13T11:01:46;4.97;;;1.60;;
13014;SDS011;6573;57.696;11.950;2023-07-13T11:04:19;10.10;;;1.70;;
13014;SDS011;6573;57.696;11.950;2023-07-13T11:06:49;3.33;;;1.63;;
13014;SDS011;6573;57.696;11.950;2023-07-13T11:09:31;5.93;;;1.70;;
13014;SDS011;6573;57.696;11.950;2023-07-13T11:12:25;4.60;;;1.50;;
13014;SDS011;6573;57.696;11.950;2023-07-13T11:15:04;5.03;;;1.70;;
13014;SDS011;6573;57.696;11.950;2023-07-13T11:17:36;5.63;;;1.37;;
13014;SDS011;6573;57.696;11.950;2023-07-13T11:20:20;5.20;;;1.37;;
13014;SDS011;6573;57.696;11.950;2023-07-13T11:23:08;3.07;;;1.17;;
13014;SDS011;6573;57.696;11.950;2023-07-13T11:25:48;4.73;;;1.10;;
13014;SDS011;6573;57.696;11.950;2023-07-13T11:28:23;5.00;;;1.30;;
13014;SDS011;6573;57.696;11.950;2023-07-13T11:31:00;4.63;;;1.07;;
13014;SDS011;6573;57.696;11.950;2023-07-13T11:36:29;4.83;;;1.40;;
13014;SDS011;6573;57.696;11.950;2023-07-13T11:39:04;3.67;;;1.10;;
13014;SDS011;6573;57.696;11.950;2023-07-13T11:41:43;5.90;;;1.17;;
13014;SDS011;6573;57.696;11.950;2023-07-13T11:44:16;8.13;;;1.93;;
13014;SDS011;6573;57.696;11.950;2023-07-13T11:46:47;7.77;;;1.37;;
13014;SDS011;6573;57.696;11.950;2023-07-13T11:49:21;5.63;;;1.77;;
13014;SDS011;6573;57.696;11.950;2023-07-13T11:51:51;4.40;;;1.20;;
13014;SDS011;6573;57.696;11.950;2023-07-13T11:54:26;7.93;;;1.07;;
13014;SDS011;6573;57.696;11.950;2023-07-13T11:56:57;3.50;;;1.10;;
13014;SDS011;6573;57.696;11.950;2023-07-13T11:59:30;4.23;;;1.10;;
13014;SDS011;6573;57.696;11.950;2023-07-13T12:02:00;4.40;;;1.33;;
13014;SDS011;6573;57.696;11.950;2023-07-13T12:04:31;5.73;;;1.43;;
13014;SDS011;6573;57.696;11.950;2023-07-13T12:07:06;5.97;;;1.47;;
13014;SDS011;6573;57.696;11.950;2023-07-13T12:09:36;3.60;;;1.47;;
13014;SDS011;6573;57.696;11.950;2023-07-13T12:12:09;5.63;;;1.30;;
13014;SDS011;6573;57.696;11.950;2023-07-13T12:14:40;3.93;;;1.47;;
13014;SDS011;6573;57.696;11.950;2023-07-13T12:17:18;6.83;;;1.40;;
13014;SDS011;6573;57.696;11.950;2023-07-13T12:19:48;3.47;;;1.10;;
13014;SDS011;6573;57.696;11.950;2023-07-13T12:22:18;4.80;;;1.30;;
13014;SDS011;6573;57.696;11.950;2023-07-13T12:24:49;5.03;;;1.17;;
13014;SDS011;6573;57.696;11.950;2023-07-13T12:27:20;3.80;;;1.23;;
13014;SDS011;6573;57.696;11.950;2023-07-13T12:29:57;5.93;;;1.70;;
13014;SDS011;6573;57.696;11.950;2023-07-13T12:32:27;4.87;;;1.20;;
13014;SDS011;6573;57.696;11.950;2023-07-13T12:35:13;4.93;;;1.00;;
13014;SDS011;6573;57.696;11.950;2023-07-13T12:37:46;3.67;;;0.87;;
13014;SDS011;6573;57.696;11.950;2023-07-13T12:40:15;1.53;;;0.70;;
13014;SDS011;6573;57.696;11.950;2023-07-13T12:42:46;1.43;;;0.50;;
13014;SDS011;6573;57.696;11.950;2023-07-13T12:45:18;2.03;;;0.70;;
13014;SDS011;6573;57.696;11.950;2023-07-13T12:47:48;1.10;;;0.40;;
13014;SDS011;6573;57.696;11.950;2023-07-13T12:50:21;3.70;;;0.63;;
13014;SDS011;6573;57.696;11.950;2023-07-13T12:52:51;3.43;;;0.70;;
13014;SDS011;6573;57.696;11.950;2023-07-13T12:55:21;4.53;;;0.80;;
13014;SDS011;6573;57.696;11.950;2023-07-13T12:57:52;4.53;;;1.00;;
13014;SDS011;6573;57.696;11.950;2023-07-13T13:00:26;4.70;;;1.10;;
13014;SDS011;6573;57.696;11.950;2023-07-13T13:03:02;2.77;;;0.80;;
13014;SDS011;6573;57.696;11.950;2023-07-13T13:05:41;3.80;;;1.03;;
13014;SDS011;6573;57.696;11.950;2023-07-13T13:08:12;4.27;;;1.00;;
13014;SDS011;6573;57.696;11.950;2023-07-13T13:10:40;3.00;;;0.90;;
13014;SDS011;6573;57.696;11.950;2023-07-13T13:13:09;2.37;;;0.80;;
13014;SDS011;6573;57.696;11.950;2023-07-13T13:15:43;2.40;;;0.90;;
13014;SDS011;6573;57.696;11.950;2023-07-13T13:18:14;5.53;;;1.10;;
13014;SDS011;6573;57.696;11.950;2023-07-13T13:20:44;2.83;;;0.87;;
13014;SDS011;6573;57.696;11.950;2023-07-13T13:23:13;4.23;;;1.20;;
13014;SDS011;6573;57.696;11.950;2023-07-13T13:25:45;5.63;;;1.00;;
13014;SDS011;6573;57.696;11.950;2023-07-13T13:28:14;7.93;;;1.20;;
13014;SDS011;6573;57.696;11.950;2023-07-13T13:30:46;3.03;;;0.97;;
13014;SDS011;6573;57.696;11.950;2023-07-13T13:33:19;3.17;;;0.90;;
13014;SDS011;6573;57.696;11.950;2023-07-13T13:35:50;3.70;;;1.10;;
13014;SDS011;6573;57.696;11.950;2023-07-13T13:38:20;7.43;;;1.37;;
13014;SDS011;6573;57.696;11.950;2023-07-13T13:40:51;3.07;;;1.10;;
13014;SDS011;6573;57.696;11.950;2023-07-13T13:43:21;5.80;;;1.00;;
13014;SDS011;6573;57.696;11.950;2023-07-13T13:45:55;3.93;;;0.90;;
13014;SDS011;6573;57.696;11.950;2023-07-13T13:48:28;3.97;;;1.20;;
13014;SDS011;6573;57.696;11.950;2023-07-13T13:50:59;3.33;;;1.10;;
13014;SDS011;6573;57.696;11.950;2023-07-13T13:53:29;4.13;;;0.97;;
13014;SDS011;6573;57.696;11.950;2023-07-13T13:55:57;2.27;;;1.10;;
13014;SDS011;6573;57.696;11.950;2023-07-13T13:58:26;2.87;;;0.87;;
13014;SDS011;6573;57.696;11.950;2023-07-13T14:00:56;2.80;;;0.90;;
13014;SDS011;6573;57.696;11.950;2023-07-13T14:03:24;5.90;;;1.00;;
13014;SDS011;6573;57.696;11.950;2023-07-13T14:05:54;2.60;;;0.73;;
13014;SDS011;6573;57.696;11.950;2023-07-13T14:08:24;3.23;;;1.10;;
13014;SDS011;6573;57.696;11.950;2023-07-13T14:10:53;3.17;;;1.00;;
13014;SDS011;6573;57.696;11.950;2023-07-13T14:13:25;3.03;;;1.00;;
13014;SDS011;6573;57.696;11.950;2023-07-13T14:15:57;5.13;;;1.00;;
13014;SDS011;6573;57.696;11.950;2023-07-13T14:18:26;3.67;;;0.90;;
13014;SDS011;6573;57.696;11.950;2023-07-13T14:20:54;5.93;;;1.20;;
13014;SDS011;6573;57.696;11.950;2023-07-13T14:23:23;5.00;;;1.00;;
13014;SDS011;6573;57.696;11.950;2023-07-13T14:25:51;3.97;;;1.00;;
13014;SDS011;6573;57.696;11.950;2023-07-13T14:28:21;3.60;;;0.87;;
13014;SDS011;6573;57.696;11.950;2023-07-13T14:30:51;4.03;;;1.30;;
13014;SDS011;6573;57.696;11.950;2023-07-13T14:33:23;3.17;;;1.10;;
13014;SDS011;6573;57.696;11.950;2023-07-13T14:35:54;4.93;;;1.30;;
13014;SDS011;6573;57.696;11.950;2023-07-13T14:38:22;3.80;;;1.20;;
13014;SDS011;6573;57.696;11.950;2023-07-13T14:40:51;3.37;;;0.90;;
13014;SDS011;6573;57.696;11.950;2023-07-13T14:43:19;1.50;;;0.80;;
13014;SDS011;6573;57.696;11.950;2023-07-13T14:45:48;6.00;;;1.10;;
13014;SDS011;6573;57.696;11.950;2023-07-13T14:48:20;4.30;;;0.93;;
13014;SDS011;6573;57.696;11.950;2023-07-13T14:50:53;2.07;;;1.20;;
13014;SDS011;6573;57.696;11.950;2023-07-13T14:53:24;5.47;;;1.20;;
13014;SDS011;6573;57.696;11.950;2023-07-13T14:55:54;2.47;;;0.70;;
13014;SDS011;6573;57.696;11.950;2023-07-13T14:58:23;2.67;;;0.80;;
13014;SDS011;6573;57.696;11.950;2023-07-13T15:00:52;1.90;;;0.73;;
13014;SDS011;6573;57.696;11.950;2023-07-13T15:03:26;3.97;;;0.83;;
13014;SDS011;6573;57.696;11.950;2023-07-13T15:05:54;5.23;;;1.00;;
13014;SDS011;6573;57.696;11.950;2023-07-13T15:08:23;4.43;;;1.00;;
13014;SDS011;6573;57.696;11.950;2023-07-13T15:10:54;2.50;;;1.13;;
13014;SDS011;6573;57.696;11.950;2023-07-13T15:13:26;4.47;;;0.90;;
13014;SDS011;6573;57.696;11.950;2023-07-13T15:15:55;2.07;;;1.20;;